createdAt,value
2019-01-03T00:00:58.940Z,30.63
2019-01-03T00:03:40.136Z,25.20
2019-01-03T00:06:29.264Z,22.43
2019-01-03T00:09:18.695Z,17.40
2019-01-03T00:12:07.844Z,26.67
2019-01-03T00:14:56.055Z,34.03
2019-01-03T00:17:43.797Z,19.70
2019-01-03T00:20:31.591Z,26.67
2019-01-03T00:23:19.939Z,32.67
2019-01-03T00:26:15.336Z,17.97
2019-01-03T00:29:03.380Z,31.40
2019-01-03T00:32:10.702Z,21.27
2019-01-03T00:35:05.770Z,28.07
2019-01-03T00:37:54.864Z,22.53
2019-01-03T00:41:02.422Z,24.67
2019-01-03T00:43:55.611Z,31.40
2019-01-03T00:46:43.711Z,26.20
2019-01-03T00:49:39.141Z,22.50
2019-01-03T00:52:26.657Z,19.90
2019-01-03T00:55:31.053Z,25.13
2019-01-03T00:58:38.186Z,30.00
2019-01-03T01:01:27.330Z,24.10
2019-01-03T01:04:15.307Z,20.10
2019-01-03T01:07:20.047Z,29.47
2019-01-03T01:10:12.284Z,23.30
2019-01-03T01:13:01.410Z,28.17
2019-01-03T01:15:53.343Z,28.40
2019-01-03T01:18:41.307Z,23.00
2019-01-03T01:21:39.586Z,25.60
2019-01-03T01:24:27.428Z,37.30
2019-01-03T01:27:15.352Z,27.00
2019-01-03T01:30:04.456Z,24.90
2019-01-03T01:32:48.079Z,23.80
2019-01-03T01:35:34.105Z,32.73
2019-01-03T01:38:32.284Z,27.17
2019-01-03T01:41:21.398Z,25.37
2019-01-03T01:44:09.392Z,19.50
2019-01-03T01:47:17.004Z,24.90
2019-01-03T01:50:15.027Z,21.37
2019-01-03T01:53:03.187Z,24.77
2019-01-03T01:56:04.229Z,20.63
2019-01-03T01:58:52.404Z,15.33
2019-01-03T02:01:40.544Z,28.40
2019-01-03T02:04:28.319Z,23.73
2019-01-03T02:07:12.775Z,19.10
2019-01-03T02:10:00.861Z,28.50
2019-01-03T02:12:49.976Z,24.10
2019-01-03T02:15:41.516Z,17.87
2019-01-03T02:18:29.167Z,24.77
2019-01-03T02:21:37.367Z,18.53
2019-01-03T02:24:44.023Z,14.73
2019-01-03T02:27:39.332Z,15.77
2019-01-03T02:30:24.807Z,14.40
2019-01-03T02:33:23.018Z,29.33
2019-01-03T02:36:10.808Z,22.07
2019-01-03T02:38:58.994Z,19.43
2019-01-03T02:41:45.983Z,19.63
2019-01-03T02:44:28.387Z,28.30
2019-01-03T02:47:20.688Z,18.47
2019-01-03T02:50:09.790Z,19.87
2019-01-03T02:52:56.203Z,16.87
2019-01-03T02:55:43.879Z,28.40
2019-01-03T02:58:31.835Z,25.53
2019-01-03T03:01:19.485Z,23.33
2019-01-03T03:04:07.382Z,22.70
2019-01-03T03:06:55.096Z,26.30
2019-01-03T03:09:47.239Z,22.40
2019-01-03T03:12:42.587Z,16.60
2019-01-03T03:15:43.622Z,26.30
2019-01-03T03:18:32.695Z,17.07
2019-01-03T03:21:19.956Z,17.40
2019-01-03T03:24:07.985Z,27.37
2019-01-03T03:26:55.896Z,12.73
2019-01-03T03:29:43.936Z,22.33
2019-01-03T03:32:35.805Z,21.40
2019-01-03T03:35:31.403Z,21.00
2019-01-03T03:38:20.611Z,16.83
2019-01-03T03:41:15.992Z,15.63
2019-01-03T03:44:11.213Z,16.60
2019-01-03T03:47:09.448Z,12.90
2019-01-03T03:49:58.531Z,21.33
2019-01-03T03:52:55.060Z,18.47
2019-01-03T03:55:42.972Z,17.33
2019-01-03T03:58:30.730Z,15.70
2019-01-03T04:01:19.556Z,20.30
2019-01-03T04:04:11.547Z,15.33
2019-01-03T04:07:15.931Z,17.40
2019-01-03T04:10:03.755Z,21.83
2019-01-03T04:13:10.900Z,21.17
2019-01-03T04:15:52.965Z,29.50
2019-01-03T04:18:48.091Z,18.80
2019-01-03T04:21:39.995Z,16.83
2019-01-03T04:24:25.853Z,15.23
2019-01-03T04:27:17.729Z,16.83
2019-01-03T04:30:05.465Z,18.10
2019-01-03T04:33:05.061Z,19.43
2019-01-03T04:35:54.220Z,22.30
2019-01-03T04:38:43.312Z,24.57
2019-01-03T04:41:41.810Z,15.27
2019-01-03T04:44:39.895Z,15.63
2019-01-03T04:47:34.836Z,23.10
2019-01-03T04:50:23.111Z,18.80
2019-01-03T04:53:14.992Z,19.53
2019-01-03T04:56:11.118Z,15.73
2019-01-03T04:59:06.436Z,22.80
2019-01-03T05:02:21.784Z,16.27
2019-01-03T05:05:09.583Z,25.67
2019-01-03T05:07:57.709Z,16.53
2019-01-03T05:10:46.998Z,21.90
2019-01-03T05:13:34.626Z,15.37
2019-01-03T05:16:22.704Z,14.47
2019-01-03T05:19:10.722Z,12.07
2019-01-03T05:22:09.668Z,15.23
2019-01-03T05:25:03.525Z,20.93
2019-01-03T05:27:51.538Z,20.90
2019-01-03T05:30:39.516Z,23.23
2019-01-03T05:33:28.456Z,23.33
2019-01-03T05:36:16.417Z,11.83
2019-01-03T05:39:11.728Z,18.23
2019-01-03T05:42:03.955Z,16.50
2019-01-03T05:44:51.891Z,16.13
2019-01-03T05:47:55.600Z,23.73
2019-01-03T05:50:43.587Z,18.07
2019-01-03T05:53:31.539Z,15.20
2019-01-03T05:56:15.942Z,16.13
2019-01-03T05:59:03.883Z,16.67
2019-01-03T06:01:54.364Z,14.37
2019-01-03T06:04:50.185Z,18.40
2019-01-03T06:07:38.002Z,20.50
2019-01-03T06:10:27.278Z,16.57
2019-01-03T06:13:31.531Z,15.90
2019-01-03T06:16:26.858Z,9.53
2019-01-03T06:19:15.972Z,15.37
2019-01-03T06:22:17.096Z,13.63
2019-01-03T06:25:05.168Z,19.83
2019-01-03T06:28:12.411Z,10.57
2019-01-03T06:31:00.578Z,12.23
2019-01-03T06:33:59.042Z,17.87
2019-01-03T06:36:48.163Z,15.37
2019-01-03T06:39:36.199Z,12.53
2019-01-03T06:42:22.688Z,19.13
2019-01-03T06:45:10.471Z,14.60
2019-01-03T06:47:58.446Z,14.03
2019-01-03T06:50:56.863Z,27.80
2019-01-03T06:53:44.537Z,12.97
2019-01-03T06:56:42.484Z,17.57
2019-01-03T06:59:34.347Z,16.20
2019-01-03T07:02:22.398Z,9.87
2019-01-03T07:05:23.435Z,23.17
2019-01-03T07:08:11.423Z,13.70
2019-01-03T07:11:22.056Z,27.83
2019-01-03T07:14:09.788Z,12.90
2019-01-03T07:16:54.592Z,13.50
2019-01-03T07:19:42.352Z,16.13
2019-01-03T07:22:34.607Z,11.53
2019-01-03T07:25:33.965Z,21.30
2019-01-03T07:28:21.920Z,16.27
2019-01-03T07:31:20.260Z,16.43
2019-01-03T07:34:11.336Z,13.53
2019-01-03T07:37:00.459Z,11.73
2019-01-03T07:39:44.658Z,14.20
2019-01-03T07:42:32.890Z,20.30
2019-01-03T07:45:20.891Z,10.63
2019-01-03T07:48:03.041Z,17.63
2019-01-03T07:51:03.287Z,13.53
2019-01-03T07:53:51.264Z,20.70
2019-01-03T07:56:41.499Z,21.13
2019-01-03T07:59:36.063Z,11.70
2019-01-03T08:02:24.256Z,23.35
2019-01-03T08:05:14.828Z,20.27
2019-01-03T08:08:10.167Z,13.77
2019-01-03T08:11:11.355Z,18.00
2019-01-03T08:14:03.259Z,14.40
2019-01-03T08:16:50.991Z,13.83
2019-01-03T08:19:47.015Z,14.23
2019-01-03T08:22:39.126Z,14.27
2019-01-03T08:25:40.531Z,22.37
2019-01-03T08:28:28.611Z,10.83
2019-01-03T08:31:16.487Z,18.23
2019-01-03T08:34:14.903Z,16.40
2019-01-03T08:37:03.075Z,27.20
2019-01-03T08:39:58.298Z,15.37
2019-01-03T08:42:46.149Z,19.53
2019-01-03T08:45:41.431Z,15.80
2019-01-03T08:48:36.746Z,11.83
2019-01-03T08:51:24.548Z,17.40
2019-01-03T08:54:25.763Z,16.50
2019-01-03T08:57:06.961Z,13.70
2019-01-03T08:59:57.062Z,13.03
2019-01-03T09:02:44.737Z,14.60
2019-01-03T09:05:42.881Z,20.93
2019-01-03T09:08:32.271Z,14.10
2019-01-03T09:11:27.699Z,19.57
2019-01-03T09:14:15.943Z,16.80
2019-01-03T09:17:19.254Z,14.30
2019-01-03T09:20:07.220Z,12.83
2019-01-03T09:22:56.496Z,9.83
2019-01-03T09:25:48.300Z,12.33
2019-01-03T09:28:44.979Z,14.70
2019-01-03T09:31:40.984Z,9.70
2019-01-03T09:34:28.724Z,18.77
2019-01-03T09:37:26.960Z,18.13
2019-01-03T09:40:26.775Z,14.90
2019-01-03T09:43:30.955Z,9.77
2019-01-03T09:46:01.120Z,21.70
2019-01-03T09:48:31.291Z,18.93
2019-01-03T09:51:01.467Z,8.87
2019-01-03T09:53:31.689Z,11.83
2019-01-03T09:56:01.883Z,11.60
2019-01-03T09:58:32.164Z,14.70
2019-01-03T10:01:02.336Z,12.17
2019-01-03T10:03:32.624Z,13.03
2019-01-03T10:06:02.774Z,13.00
2019-01-03T10:08:32.981Z,10.80
2019-01-03T10:11:03.213Z,10.93
2019-01-03T10:13:33.383Z,12.33
2019-01-03T10:16:03.551Z,14.93
2019-01-03T10:18:33.715Z,13.03
2019-01-03T10:21:03.860Z,10.90
2019-01-03T10:23:34.024Z,11.20
2019-01-03T10:26:04.613Z,10.00
2019-01-03T10:28:34.937Z,15.50
2019-01-03T10:31:05.063Z,13.50
2019-01-03T10:33:35.331Z,12.13
2019-01-03T10:36:05.515Z,16.53
2019-01-03T10:38:35.675Z,10.10
2019-01-03T10:41:05.850Z,12.57
2019-01-03T10:43:35.992Z,14.40
2019-01-03T10:46:06.332Z,13.70
2019-01-03T10:48:36.500Z,13.53
2019-01-03T10:51:06.678Z,13.00
2019-01-03T10:53:36.854Z,9.33
2019-01-03T10:56:07.016Z,12.80
2019-01-03T10:58:37.155Z,11.73
2019-01-03T11:01:07.295Z,8.60
2019-01-03T11:03:37.471Z,12.10
2019-01-03T11:06:07.615Z,7.70
2019-01-03T11:08:37.812Z,14.07
2019-01-03T11:11:08.916Z,11.10
2019-01-03T11:13:39.072Z,9.87
2019-01-03T11:16:09.252Z,10.27
2019-01-03T11:18:39.420Z,10.13
2019-01-03T11:21:09.599Z,14.37
2019-01-03T11:23:42.323Z,6.00
2019-01-03T11:26:12.516Z,7.70
2019-01-03T11:28:42.696Z,10.17
2019-01-03T11:31:12.851Z,10.73
2019-01-03T11:33:43.024Z,6.87
2019-01-03T11:36:13.212Z,9.17
2019-01-03T11:38:43.455Z,8.60
2019-01-03T11:41:13.627Z,10.87
2019-01-03T11:43:43.810Z,9.03
2019-01-03T11:46:13.959Z,8.20
2019-01-03T11:48:44.142Z,6.63
2019-01-03T11:51:14.314Z,10.20
2019-01-03T11:53:44.567Z,9.80
2019-01-03T11:56:15.703Z,9.10
2019-01-03T11:58:45.860Z,6.50
2019-01-03T12:01:16.032Z,8.53
2019-01-03T12:03:46.186Z,5.10
2019-01-03T12:06:17.574Z,7.93
2019-01-03T12:08:47.763Z,7.27
2019-01-03T12:11:17.996Z,7.70
2019-01-03T12:13:48.162Z,13.77
2019-01-03T12:16:18.448Z,6.17
2019-01-03T12:18:48.690Z,8.93
2019-01-03T12:21:19.986Z,5.37
2019-01-03T12:23:50.132Z,5.93
2019-01-03T12:26:20.358Z,12.80
2019-01-03T12:28:50.519Z,4.57
2019-01-03T12:31:20.756Z,5.93
2019-01-03T12:33:50.924Z,5.80
2019-01-03T12:36:21.129Z,12.00
2019-01-03T12:38:51.288Z,9.97
2019-01-03T12:41:21.500Z,8.83
2019-01-03T12:43:51.654Z,15.70
2019-01-03T12:46:21.931Z,4.23
2019-01-03T12:48:52.118Z,6.83
2019-01-03T12:51:22.300Z,7.30
2019-01-03T12:53:52.504Z,13.33
2019-01-03T12:56:22.672Z,5.23
2019-01-03T12:58:54.731Z,5.83
2019-01-03T13:01:24.958Z,12.33
2019-01-03T13:03:55.163Z,11.73
2019-01-03T13:06:25.441Z,13.63
2019-01-03T13:08:55.605Z,6.10
2019-01-03T13:11:25.782Z,6.50
2019-01-03T13:13:55.963Z,4.53
2019-01-03T13:16:26.149Z,7.00
2019-01-03T13:18:56.411Z,13.10
2019-01-03T13:21:26.646Z,12.93
2019-01-03T13:23:56.808Z,7.83
2019-01-03T13:26:27.012Z,5.43
2019-01-03T13:28:58.675Z,5.07
2019-01-03T13:31:28.836Z,6.93
2019-01-03T13:33:59.021Z,13.43
2019-01-03T13:36:29.192Z,9.27
2019-01-03T13:38:59.363Z,9.80
2019-01-03T13:41:29.611Z,3.83
2019-01-03T13:43:59.788Z,6.63
2019-01-03T13:46:29.986Z,8.50
2019-01-03T13:49:00.141Z,7.90
2019-01-03T13:51:30.304Z,8.97
2019-01-03T13:54:00.475Z,6.03
2019-01-03T13:56:30.664Z,8.17
2019-01-03T13:59:00.822Z,7.53
2019-01-03T14:01:31.014Z,8.50
2019-01-03T14:04:01.223Z,5.10
2019-01-03T14:06:31.407Z,4.87
2019-01-03T14:09:01.552Z,10.20
2019-01-03T14:11:33.092Z,8.43
2019-01-03T14:14:03.256Z,5.23
2019-01-03T14:16:33.389Z,6.40
2019-01-03T14:19:03.655Z,8.37
2019-01-03T14:21:33.816Z,6.60
2019-01-03T14:24:03.988Z,4.70
2019-01-03T14:26:34.202Z,5.40
2019-01-03T14:29:05.367Z,5.83
2019-01-03T14:31:35.541Z,7.30
2019-01-03T14:34:05.675Z,8.37
2019-01-03T14:36:35.859Z,12.77
2019-01-03T14:39:07.568Z,5.60
2019-01-03T14:41:37.791Z,7.80
2019-01-03T14:44:07.955Z,4.37
2019-01-03T14:46:38.107Z,9.37
2019-01-03T14:49:08.263Z,6.73
2019-01-03T14:51:38.406Z,7.83
2019-01-03T14:54:08.592Z,8.10
2019-01-03T14:56:38.743Z,10.10
2019-01-03T14:59:08.927Z,9.03
2019-01-03T15:01:39.128Z,6.07
2019-01-03T15:04:09.310Z,6.47
2019-01-03T15:06:39.461Z,13.40
2019-01-03T15:09:09.632Z,8.73
2019-01-03T15:11:39.895Z,5.47
2019-01-03T15:14:10.127Z,7.03
2019-01-03T15:16:40.291Z,4.60
2019-01-03T15:19:10.419Z,10.67
2019-01-03T15:21:40.720Z,11.40
2019-01-03T15:24:10.867Z,8.10
2019-01-03T15:26:41.167Z,17.03
2019-01-03T15:29:11.431Z,13.10
2019-01-03T15:31:41.726Z,12.37
2019-01-03T15:34:11.875Z,13.27
2019-01-03T15:36:42.105Z,7.63
2019-01-03T15:39:12.328Z,11.30
2019-01-03T15:41:42.548Z,12.87
2019-01-03T15:44:12.701Z,8.07
2019-01-03T15:46:42.868Z,8.80
2019-01-03T15:49:13.163Z,11.40
2019-01-03T15:51:43.455Z,7.20
2019-01-03T15:54:13.640Z,9.23
2019-01-03T15:56:43.900Z,5.73
2019-01-03T15:59:14.120Z,19.77
2019-01-03T16:01:44.339Z,8.67
2019-01-03T16:04:14.573Z,6.10
2019-01-03T16:06:44.748Z,17.00
2019-01-03T16:09:20.859Z,8.93
2019-01-03T16:11:51.075Z,11.30
2019-01-03T16:14:21.246Z,8.77
2019-01-03T16:16:51.423Z,15.13
2019-01-03T16:19:21.591Z,10.90
2019-01-03T16:21:51.779Z,5.93
2019-01-03T16:24:21.943Z,8.33
2019-01-03T16:26:52.108Z,7.57
2019-01-03T16:29:22.300Z,16.23
2019-01-03T16:31:52.508Z,13.00
2019-01-03T16:34:22.736Z,9.10
2019-01-03T16:36:52.906Z,16.80
2019-01-03T16:39:23.063Z,10.37
2019-01-03T16:41:53.224Z,13.10
2019-01-03T16:44:23.380Z,12.83
2019-01-03T16:46:53.556Z,7.07
2019-01-03T16:49:23.708Z,12.03
2019-01-03T16:51:53.888Z,8.80
2019-01-03T16:54:24.094Z,7.23
2019-01-03T16:56:54.341Z,9.03
2019-01-03T16:59:24.530Z,7.60
2019-01-03T17:01:54.854Z,6.47
2019-01-03T17:04:25.115Z,6.57
2019-01-03T17:06:55.303Z,5.97
2019-01-03T17:09:25.493Z,7.13
2019-01-03T17:11:55.735Z,9.07
2019-01-03T17:14:27.472Z,10.87
2019-01-03T17:16:57.705Z,6.80
2019-01-03T17:19:27.890Z,7.37
2019-01-03T17:21:58.054Z,5.70
2019-01-03T17:24:28.357Z,5.07
2019-01-03T17:26:58.632Z,9.40
2019-01-03T17:29:28.828Z,7.27
2019-01-03T17:31:59.102Z,8.60
2019-01-03T17:34:29.279Z,9.80
2019-01-03T17:36:59.476Z,12.30
2019-01-03T17:39:29.710Z,9.83
2019-01-03T17:41:59.995Z,11.93
2019-01-03T17:44:30.236Z,8.97
2019-01-03T17:47:00.428Z,8.17
2019-01-03T17:49:30.600Z,7.10
2019-01-03T17:52:00.920Z,9.33
2019-01-03T17:54:31.103Z,7.07
2019-01-03T17:57:01.271Z,7.90
2019-01-03T17:59:31.605Z,6.67
2019-01-03T18:02:01.916Z,17.07
2019-01-03T18:04:32.075Z,7.90
2019-01-03T18:07:02.368Z,4.10
2019-01-03T18:09:32.522Z,7.57
2019-01-03T18:12:02.735Z,8.10
2019-01-03T18:14:32.952Z,12.37
2019-01-03T18:17:03.160Z,13.97
2019-01-03T18:19:33.442Z,4.00
2019-01-03T18:22:03.613Z,10.53
2019-01-03T18:24:33.801Z,7.13
2019-01-03T18:27:03.950Z,6.20
2019-01-03T18:29:34.177Z,7.97
2019-01-03T18:32:06.007Z,12.33
2019-01-03T18:34:36.195Z,8.13
2019-01-03T18:37:06.385Z,9.23
2019-01-03T18:39:36.637Z,8.73
2019-01-03T18:42:18.818Z,9.77
2019-01-03T18:44:49.023Z,11.37
2019-01-03T18:47:19.293Z,9.53
2019-01-03T18:49:49.937Z,10.27
2019-01-03T18:52:20.365Z,8.93
2019-01-03T18:54:50.649Z,8.03
2019-01-03T18:57:21.062Z,7.93
2019-01-03T18:59:51.607Z,10.07
2019-01-03T19:02:21.874Z,7.07
2019-01-03T19:04:53.227Z,7.87
2019-01-03T19:07:23.417Z,7.03
2019-01-03T19:09:53.625Z,5.97
2019-01-03T19:12:24.912Z,9.27
2019-01-03T19:14:55.351Z,8.23
2019-01-03T19:17:25.531Z,8.73
2019-01-03T19:19:55.804Z,12.37
2019-01-03T19:22:26.005Z,8.87
2019-01-03T19:24:57.715Z,27.03
2019-01-03T19:27:28.008Z,8.40
2019-01-03T19:29:58.251Z,12.90
2019-01-03T19:32:28.521Z,13.00
2019-01-03T19:34:58.691Z,9.33
2019-01-03T19:37:29.970Z,11.30
2019-01-03T19:40:00.203Z,8.80
2019-01-03T19:42:30.400Z,7.60
2019-01-03T19:45:00.585Z,10.87
2019-01-03T19:47:30.773Z,8.40
2019-01-03T19:50:01.187Z,12.40
2019-01-03T19:52:31.356Z,6.10
2019-01-03T19:55:01.507Z,11.27
2019-01-03T19:57:31.795Z,8.50
2019-01-03T20:00:02.192Z,11.67
2019-01-03T20:02:32.474Z,10.60
2019-01-03T20:05:02.739Z,9.67
2019-01-03T20:07:32.944Z,9.23
2019-01-03T20:10:03.191Z,13.40
2019-01-03T20:12:33.411Z,13.43
2019-01-03T20:15:03.603Z,9.27
2019-01-03T20:17:34.807Z,15.67
2019-01-03T20:20:06.378Z,12.40
2019-01-03T20:22:38.117Z,10.27
2019-01-03T20:25:09.150Z,10.63
2019-01-03T20:27:40.890Z,15.80
2019-01-03T20:30:11.617Z,8.90
2019-01-03T20:32:41.873Z,12.10
2019-01-03T20:35:12.149Z,17.13
2019-01-03T20:37:42.309Z,14.30
2019-01-03T20:40:12.593Z,19.97
2019-01-03T20:42:44.240Z,14.27
2019-01-03T20:45:14.422Z,10.93
2019-01-03T20:47:44.595Z,13.60
2019-01-03T20:50:14.872Z,12.10
2019-01-03T20:52:45.047Z,11.60
2019-01-03T20:55:15.449Z,5.90
2019-01-03T20:57:47.098Z,11.63
2019-01-03T21:00:17.274Z,7.70
2019-01-03T21:02:47.444Z,9.73
2019-01-03T21:05:17.639Z,14.63
2019-01-03T21:07:47.860Z,13.80
2019-01-03T21:10:18.031Z,10.03
2019-01-03T21:12:48.230Z,12.90
2019-01-03T21:15:19.987Z,12.13
2019-01-03T21:17:50.259Z,13.13
2019-01-03T21:20:20.459Z,8.47
2019-01-03T21:22:50.649Z,17.97
2019-01-03T21:25:20.828Z,12.77
2019-01-03T21:27:50.995Z,16.97
2019-01-03T21:30:22.392Z,9.30
2019-01-03T21:32:52.620Z,12.00
2019-01-03T21:35:22.863Z,11.70
2019-01-03T21:37:53.048Z,15.50
2019-01-03T21:40:23.242Z,12.60
2019-01-03T21:42:54.519Z,12.83
2019-01-03T21:45:24.715Z,11.60
2019-01-03T21:47:55.028Z,13.53
2019-01-03T21:50:25.212Z,12.63
2019-01-03T21:52:55.422Z,14.67
2019-01-03T21:55:25.692Z,19.23
2019-01-03T21:57:55.987Z,17.47
2019-01-03T22:00:27.372Z,14.50
2019-01-03T22:02:57.595Z,17.50
2019-01-03T22:05:27.795Z,16.77
2019-01-03T22:07:58.083Z,16.13
2019-01-03T22:10:29.493Z,14.53
2019-01-03T22:12:59.675Z,14.27
2019-01-03T22:15:29.843Z,15.87
2019-01-03T22:17:59.999Z,15.83
2019-01-03T22:20:30.160Z,18.10
2019-01-03T22:23:00.358Z,14.17
2019-01-03T22:25:30.505Z,15.03
2019-01-03T22:28:00.780Z,17.67
2019-01-03T22:30:30.969Z,16.00
2019-01-03T22:33:01.167Z,15.43
2019-01-03T22:35:31.359Z,13.90
2019-01-03T22:38:01.525Z,8.23
2019-01-03T22:40:31.784Z,13.37
2019-01-03T22:43:04.371Z,12.60
2019-01-03T22:45:34.543Z,16.00
2019-01-03T22:48:04.758Z,18.50
2019-01-03T22:50:36.134Z,11.33
2019-01-03T22:53:06.320Z,14.63
2019-01-03T22:55:36.514Z,13.77
2019-01-03T22:58:07.773Z,16.80
2019-01-03T23:00:44.801Z,14.43
2019-01-03T23:03:14.996Z,21.40
2019-01-03T23:05:45.172Z,14.27
2019-01-03T23:08:15.332Z,22.17
2019-01-03T23:10:45.492Z,15.50
2019-01-03T23:13:15.653Z,28.40
2019-01-03T23:15:45.783Z,19.00
2019-01-03T23:18:16.063Z,15.93
2019-01-03T23:20:46.398Z,12.13
2019-01-03T23:23:17.652Z,15.60
2019-01-03T23:25:47.892Z,16.70
2019-01-03T23:28:18.050Z,16.37
2019-01-03T23:30:48.259Z,31.10
2019-01-03T23:33:18.523Z,23.40
2019-01-03T23:35:49.768Z,19.43
2019-01-03T23:38:19.927Z,13.30
2019-01-03T23:40:50.200Z,13.00
2019-01-03T23:43:20.367Z,11.30
2019-01-03T23:45:50.542Z,19.43
2019-01-03T23:48:20.832Z,16.17
2019-01-03T23:50:50.979Z,17.83
2019-01-03T23:53:21.140Z,16.10
2019-01-03T23:55:55.472Z,13.77
2019-01-03T23:58:25.613Z,19.00
